Endeavor CRJ2 at Detroit on May 10th 2021, wing tip strike on landing

Last Update: May 11, 2021 / 18:14:07 GMT/Zulu time

Bookmark this article
Incident Facts

Date of incident
May 10, 2021

Classification
Incident

Flight number
DL-4665

Aircraft Registration
N8928A

ICAO Type Designator
CRJ2

Airport ICAO Code
KDTW

An Endeavor Canadair CRJ-200 on behalf of Delta Airlines, registration N8928A performing flight DL-4665 from Toronto,ON (Canada) to Detroit,MI (USA), performed a visual landing on Detroit's runway 03R at 13:02L (17:02Z), crew and tower maintained routine communication. The aircraft vacated the runway and taxied to the apron.

The FAA reported however, that the "AIRCRAFT ON LANDING RIGHT WING STRUCK THE RUNWAY, DETROIT, MI." causing unknown damage, giving the time of occurrence at 18:10Z. The occurrence was so far rated an incident.

The occurrence aircraft is still on the ground in Detroit about 24 hours after landing.



Metars:
KDTW 101853Z 28014KT 10SM FEW060 BKN080 12/00 A3009 RMK AO2 PK WND 30026/1817 SLP191 T01220000=
KDTW 101753Z 28013G21KT 10SM FEW040 BKN085 13/02 A3009 RMK AO2 SLP193 T01330017 10133 20044 58001=
KDTW 101653Z 32011KT 10SM OVC080 11/00 A3010 RMK AO2 SLP197 T01110000=
KDTW 101553Z 30010KT 10SM OVC095 11/M01 A3010 RMK AO2 SLP196 T01061006=
KDTW 101453Z 30012G15KT 10SM BKN100 11/01 A3009 RMK AO2 SLP194 T01060006 51007=
KDTW 101353Z 30007G15KT 10SM FEW250 09/01 A3009 RMK AO2 SLP193 T00940011=
KDTW 101253Z 35005KT 8SM FEW250 07/01 A3008 RMK AO2 SLP190 T00720011=
Aircraft Registration Data
Registration mark
N8928A
Country of Registration
United States
Date of Registration
Efjplpmkqcgkn Subscribe to unlock
Manufacturer
BOMBARDIER INC
Aircraft Model / Type
CL-600-2B19
Number of Seats
ICAO Aircraft Type
CRJ2
Year of Manufacture
Serial Number
Aircraft Address / Mode S Code (HEX)
Engine Count
Engine Manufacturer
Engine Model
Engine Type
Pounds of Thrust
Main Owner
Phpnn pcg hAkkfcA eqdffjmqpfqimAcilgieqmb h qkcmAnibeAphqdpqlmkbndnpdbqbcl bblgfledqknhqemikkc glbbepdqAqcfi Subscribe to unlock
Incident Facts

Date of incident
May 10, 2021

Classification
Incident

Flight number
DL-4665

Aircraft Registration
N8928A

ICAO Type Designator
CRJ2

Airport ICAO Code
KDTW

This article is published under license from Avherald.com. © of text by Avherald.com.
Article source

You can read 2 more free articles without a subscription.

Subscribe now and continue reading without any limits!

Are you a subscriber? Login
Subscribe

Read unlimited articles and receive our daily update briefing. Gain better insights into what is happening in commercial aviation safety.

Free newsletter

Want to know more and stay ahead? Get our free weekly newsletter and join 5377 existing subscribers.

By subscribing, you accept our terms and conditions and confirm that you've read our privacy policy.

Send tip

Support AeroInside by sending a small tip amount.

Related articles

Newest articles

Subscribe today

Are you researching aviation incidents? Get access to AeroInside Insights, unlimited read access and receive the daily newsletter.

Pick your plan and subscribe

Partner

Blockaviation logo

A new way to document and demonstrate airworthiness compliance and aircraft value. Find out more.

Virtual Speech logo

ELITE Simulation Solutions is a leading global provider of Flight Simulation Training Devices, IFR training software as well as flight controls and related services. Find out more.

Get updates

Never miss an article from AeroInside. Subscribe to our free weekly newsletter and join 5377 existing subscribers.

By subscribing, you accept our terms and conditions and that you've read our privacy policy.

AeroInside Blog
Popular aircraft
Airbus A320
Boeing 737-800
Boeing 737-800 MAX
Popular airlines
American Airlines
United
Delta
Air Canada
Lufthansa
British Airways